KHON

Huron Regional Airport

Huron, South Dakota, USA
METAR KHON 212055Z AUTO 01010KT 10SM CLR 17/01 A3000 RMK AO2 SLP165 T01720011 58002
Observed Flight Rules
Oct-21 @ 20:55 UTC (20 minutes ago) Visual Flight Rules
Wind Visibility Clouds
10° at 10 knots 10 miles
  • Clear skies
Temperatures Readings
Current 17°C / 63°F
Dewpoint 1°C / 34°F
Humidity 34%
Altimeter 30" Hg
Pressure 1016.5 hPa
Elevation 390
METAR KHON 212055Z AUTO 01010KT 10SM CLR 17/01 A3000 RMK AO2 SLP165 T01720011 58002
Observed Flight Rules
Oct-21 @ 20:55 UTC
(20 minutes ago)
VFR
Wind Visibility
10° at 10 knots 10 miles
Clouds
  • Clear skies
Temperature Dewpoint
17°C / 63°F 1°C / 34°F
Humidity Altimeter Pressure
34% 30" Hg 1016.5 hPa